Time;durP1;ratioP1;P1;durP2;ratioP2;P2;SDS_P1;SDS_P2;PMS_P1;PMS_P2;Temp;Humidity;BMP_temperature;BMP_pressure;BME280_temperature;BME280_humidity;BME280_pressure;Samples;Min_cycle;Max_cycle;Signal;HPM_P1;HPM_P2
2022/12/15 00:38:46;;;;;;;;;;;-5.30;99.90;;;;;;4963667;28;19937;-79
2022/12/15 00:41:14;;;;;;;;;;;-5.30;99.90;;;;;;4953558;28;19934;-77
2022/12/15 00:43:41;;;;;;;;;;;-5.30;99.90;;;;;;4959546;28;20013;-77
2022/12/15 00:48:54;;;;;;;;;;;-5.30;99.90;;;;;;4965171;28;20320;-78
2022/12/15 01:21:39;;;;;;;;;;;-5.20;99.90;;;;;;4951302;29;20404;-79
2022/12/15 01:24:06;;;;;;;;;;;-5.10;99.90;;;;;;4973227;28;19934;-80
2022/12/15 01:26:33;;;;;;;;;;;-5.00;99.90;;;;;;4955034;28;19934;-80
2022/12/15 01:29:00;;;;;;;;;;;-5.00;99.90;;;;;;4958457;28;19930;-78
2022/12/15 01:31:27;;;;;;;;;;;-5.00;99.90;;;;;;4949770;28;20032;-79
2022/12/15 01:33:54;;;;;;;;;;;-5.00;99.90;;;;;;4961706;28;19930;-79
2022/12/15 01:36:21;;;;;;;;;;;-5.00;99.90;;;;;;4969752;28;20475;-81
2022/12/15 01:38:49;;;;;;;;;;;-5.00;99.90;;;;;;4976463;28;19997;-79
2022/12/15 01:41:15;;;;;;;;;;;-4.90;99.90;;;;;;4973202;28;19985;-79
2022/12/15 01:43:42;;;;;;;;;;;-4.90;99.90;;;;;;4956464;28;19961;-79
2022/12/15 01:46:10;;;;;;;;;;;-4.90;99.90;;;;;;4972286;28;19925;-79
2022/12/15 01:48:46;;;;;;;;;;;-4.90;99.90;;;;;;4955198;28;19945;-79
2022/12/15 01:51:15;;;;;;;;;;;-4.80;99.90;;;;;;4948828;28;19926;-78
2022/12/15 01:53:43;;;;;;;;;;;-4.80;99.90;;;;;;4961237;28;20339;-79
2022/12/15 01:56:12;;;;;;;;;;;-4.80;99.90;;;;;;4950911;29;19931;-79
2022/12/15 01:58:42;;;;;;;;;;;-4.70;99.90;;;;;;4954126;28;19937;-79
2022/12/15 02:01:10;;;;;;;;;;;-4.70;99.90;;;;;;4964896;28;19966;-79
2022/12/15 02:03:37;;;;;;;;;;;-4.70;99.90;;;;;;4970387;28;19987;-79
2022/12/15 02:06:05;;;;;;;;;;;-4.70;99.90;;;;;;4976515;28;19945;-79
2022/12/15 02:08:32;;;;;;;;;;;-4.70;99.90;;;;;;4976223;28;19964;-80
2022/12/15 02:11:07;;;;;;;;;;;-4.70;99.90;;;;;;4953333;28;19966;-80
2022/12/15 02:13:39;;;;;;;;;;;-4.60;99.90;;;;;;4972731;28;19972;-78
2022/12/15 02:16:12;;;;;;;;;;;-4.60;99.90;;;;;;4964186;28;19965;-78
2022/12/15 02:18:43;;;;;;;;;;;-4.60;99.90;;;;;;4963429;28;19941;-78
2022/12/15 02:21:14;;;;;;;;;;;-4.70;99.90;;;;;;4952067;28;19938;-78
2022/12/15 02:23:55;;;;;;;;;;;-4.60;99.90;;;;;;4962732;28;20037;-78
2022/12/15 02:26:43;;;;;;;;;;;-4.60;99.90;;;;;;4970375;28;20017;-79
2022/12/15 02:29:21;;;;;;;;;;;-4.60;99.90;;;;;;4949186;28;19934;-79
2022/12/15 02:31:51;;;;;;;;;;;-4.60;99.90;;;;;;4970901;28;19934;-79
2022/12/15 02:34:22;;;;;;;;;;;-4.60;99.90;;;;;;4959560;28;19926;-79
2022/12/15 02:36:49;;;;;;;;;;;-4.60;99.90;;;;;;4970086;28;19934;-78
2022/12/15 02:39:18;;;;;;;;;;;-4.60;99.90;;;;;;4950993;28;19938;-78
2022/12/15 02:41:46;;;;;;;;;;;-4.70;99.90;;;;;;4968950;28;19937;-79
2022/12/15 02:44:15;;;;;;;;;;;-4.70;99.90;;;;;;4959540;28;20312;-78
2022/12/15 02:46:53;;;;;;;;;;;-4.70;99.90;;;;;;4966944;28;19953;-78
2022/12/15 02:49:26;;;;;;;;;;;-4.70;99.90;;;;;;4965301;28;19926;-77
2022/12/15 02:51:58;;;;;;;;;;;-4.70;99.90;;;;;;4968584;28;19926;-77
2022/12/15 02:54:35;;;;;;;;;;;-4.70;99.90;;;;;;4948510;28;20155;-77
2022/12/15 02:57:05;;;;;;;;;;;-4.70;99.90;;;;;;4969582;28;19930;-78
2022/12/15 02:59:37;;;;;;;;;;;-3.80;99.90;;;;;;4963147;28;19964;-79
2022/12/15 03:02:05;;;;;;;;;;;-4.60;99.90;;;;;;4945418;28;20785;-79
2022/12/15 03:04:33;;;;;;;;;;;-4.60;99.90;;;;;;4961042;28;19926;-78
2022/12/15 03:07:02;;;;;;;;;;;-4.60;99.90;;;;;;4955161;28;19934;-77
2022/12/15 03:09:29;;;;;;;;;;;-4.60;99.90;;;;;;4954660;28;19930;-79
2022/12/15 03:11:56;;;;;;;;;;;-4.60;99.90;;;;;;4957773;28;19966;-78
2022/12/15 03:14:24;;;;;;;;;;;-4.60;99.90;;;;;;4951841;29;20017;-78
2022/12/15 03:16:51;;;;;;;;;;;-4.60;99.90;;;;;;4954795;28;19977;-78
2022/12/15 03:19:18;;;;;;;;;;;-4.60;99.90;;;;;;4970729;28;19930;-79
2022/12/15 03:21:46;;;;;;;;;;;-4.60;99.90;;;;;;4949367;28;19926;-79
2022/12/15 03:24:13;;;;;;;;;;;-4.50;99.90;;;;;;4969501;28;19930;-80
2022/12/15 03:26:40;;;;;;;;;;;-4.60;99.90;;;;;;4969033;28;19958;-80
2022/12/15 03:29:07;;;;;;;;;;;-4.60;99.90;;;;;;4970953;28;20430;-78
2022/12/15 03:31:34;;;;;;;;;;;-4.60;99.90;;;;;;4960328;28;19954;-79
2022/12/15 03:34:02;;;;;;;;;;;-4.60;99.90;;;;;;4958321;28;19938;-78
2022/12/15 03:36:28;;;;;;;;;;;-4.60;99.90;;;;;;4971913;28;19969;-78
2022/12/15 03:38:57;;;;;;;;;;;-4.60;99.90;;;;;;4957049;28;21064;-78
2022/12/15 03:41:24;;;;;;;;;;;-5.00;99.90;;;;;;4954962;28;19937;-78
2022/12/15 03:43:50;;;;;;;;;;;-3.50;99.90;;;;;;4966147;28;19934;-78
2022/12/15 03:46:18;;;;;;;;;;;-4.60;99.90;;;;;;4954218;28;19945;-78
2022/12/15 03:48:44;;;;;;;;;;;-4.60;99.90;;;;;;4968006;28;19957;-78
2022/12/15 03:51:11;;;;;;;;;;;-4.60;99.90;;;;;;4946572;28;20537;-77
2022/12/15 03:53:38;;;;;;;;;;;-4.60;99.90;;;;;;4947664;28;19965;-78
2022/12/15 03:56:07;;;;;;;;;;;-4.60;99.90;;;;;;4954392;28;19926;-78
2022/12/15 03:58:34;;;;;;;;;;;-4.50;99.90;;;;;;4964043;28;19933;-77
2022/12/15 04:01:09;;;;;;;;;;;-4.60;99.90;;;;;;4967504;28;19938;-78
2022/12/15 04:03:36;;;;;;;;;;;-4.60;99.90;;;;;;4961556;28;19957;-79
2022/12/15 04:06:04;;;;;;;;;;;-4.50;99.90;;;;;;4969736;28;20419;-81
2022/12/15 04:08:31;;;;;;;;;;;-4.60;99.90;;;;;;4967759;28;21295;-78
2022/12/15 04:10:57;;;;;;;;;;;-4.50;99.90;;;;;;4969689;28;20168;-78
2022/12/15 04:13:26;;;;;;;;;;;-4.60;99.90;;;;;;4963709;28;20016;-78
2022/12/15 04:15:53;;;;;;;;;;;-4.60;99.90;;;;;;4951072;28;19934;-78
2022/12/15 04:18:20;;;;;;;;;;;-4.00;99.90;;;;;;4970754;28;19965;-79
2022/12/15 04:20:46;;;;;;;;;;;-4.00;99.90;;;;;;4954721;28;19945;-79
2022/12/15 04:23:13;;;;;;;;;;;-4.60;99.90;;;;;;4971700;28;19922;-78
2022/12/15 05:31:47;;;;;;;;;;;-4.60;99.90;;;;;;4975678;28;20042;-78
2022/12/15 05:34:16;;;;;;;;;;;-4.60;99.90;;;;;;4974633;28;19930;-77
2022/12/15 05:36:43;;;;;;;;;;;-4.60;99.90;;;;;;4957609;28;19959;-78
2022/12/15 05:39:09;;;;;;;;;;;-4.60;99.90;;;;;;4963665;28;19937;-77
2022/12/15 05:41:36;;;;;;;;;;;-4.60;99.90;;;;;;4983089;28;19934;-77
2022/12/15 05:44:03;;;;;;;;;;;-4.60;99.90;;;;;;4960028;28;20316;-79
2022/12/15 05:46:30;;;;;;;;;;;-4.60;99.90;;;;;;4978008;28;20038;-79
2022/12/15 05:48:58;;;;;;;;;;;-4.50;99.90;;;;;;4964363;28;20000;-79
2022/12/15 05:51:26;;;;;;;;;;;-4.60;99.90;;;;;;4968441;28;19929;-78
2022/12/15 05:53:54;;;;;;;;;;;-4.50;99.90;;;;;;4961493;28;19944;-81
2022/12/15 05:56:22;;;;;;;;;;;-4.50;99.90;;;;;;4962506;28;20074;-81
2022/12/15 05:58:49;;;;;;;;;;;-4.50;99.90;;;;;;4977163;28;20466;-80
2022/12/15 06:01:17;;;;;;;;;;;-4.50;99.90;;;;;;4958143;28;19934;-81
2022/12/15 06:03:46;;;;;;;;;;;-4.50;99.90;;;;;;4959555;28;20025;-80
2022/12/15 06:06:13;;;;;;;;;;;-4.40;99.90;;;;;;4961136;28;20281;-80
2022/12/15 06:08:42;;;;;;;;;;;-4.30;99.90;;;;;;4983123;28;19941;-80
2022/12/15 06:11:10;;;;;;;;;;;-4.30;99.90;;;;;;4955130;28;19934;-81
2022/12/15 06:13:37;;;;;;;;;;;-4.30;99.90;;;;;;4958951;28;20570;-81
2022/12/15 06:16:05;;;;;;;;;;;-4.10;99.90;;;;;;4979082;28;19930;-80
2022/12/15 06:18:33;;;;;;;;;;;-4.10;99.90;;;;;;4965755;28;19926;-82
2022/12/15 06:21:01;;;;;;;;;;;-4.00;99.90;;;;;;4964727;28;19933;-83
2022/12/15 06:23:29;;;;;;;;;;;-3.90;99.90;;;;;;4988464;28;19988;-83
2022/12/15 06:25:57;;;;;;;;;;;-3.90;99.90;;;;;;4960562;28;19926;-81
2022/12/15 06:28:24;;;;;;;;;;;-3.80;99.90;;;;;;4967781;28;20343;-81
2022/12/15 06:30:52;;;;;;;;;;;-3.80;99.90;;;;;;4978247;28;19930;-81
2022/12/15 06:33:19;;;;;;;;;;;-3.70;99.90;;;;;;4961429;28;19934;-80
2022/12/15 06:35:46;;;;;;;;;;;-3.60;99.90;;;;;;4967663;28;19933;-80
2022/12/15 06:38:13;;;;;;;;;;;-3.60;99.90;;;;;;4972307;28;19980;-79
2022/12/15 06:40:40;;;;;;;;;;;-3.60;99.90;;;;;;4959236;28;19971;-80
2022/12/15 06:43:08;;;;;;;;;;;-3.60;99.90;;;;;;4955178;28;19934;-81
2022/12/15 06:45:36;;;;;;;;;;;-3.50;99.90;;;;;;4983888;28;19953;-81
2022/12/15 06:48:03;;;;;;;;;;;-3.50;99.90;;;;;;4963256;28;19957;-81
2022/12/15 06:50:30;;;;;;;;;;;-3.50;99.90;;;;;;4958193;28;20029;-83
2022/12/15 06:52:59;;;;;;;;;;;-3.40;99.90;;;;;;4952550;28;19930;-80
2022/12/15 06:55:25;;;;;;;;;;;-3.40;99.90;;;;;;4958474;28;20009;-80
2022/12/15 06:57:52;;;;;;;;;;;-3.40;99.90;;;;;;4968580;28;19926;-78
2022/12/15 07:00:21;;;;;;;;;;;-3.30;99.90;;;;;;4963404;28;19937;-78
2022/12/15 07:02:48;;;;;;;;;;;-3.30;99.90;;;;;;4954212;28;20316;-78
2022/12/15 07:05:15;;;;;;;;;;;-3.30;99.90;;;;;;4955257;28;19926;-78
2022/12/15 07:07:42;;;;;;;;;;;-3.20;99.90;;;;;;4956288;28;19938;-77
2022/12/15 07:10:10;;;;;;;;;;;-3.20;99.90;;;;;;4954915;28;19930;-78
2022/12/15 07:12:37;;;;;;;;;;;-3.20;99.90;;;;;;4956112;28;20082;-79
2022/12/15 07:15:04;;;;;;;;;;;-3.10;99.90;;;;;;4958397;28;19937;-79
2022/12/15 07:17:32;;;;;;;;;;;-3.10;99.90;;;;;;4958257;28;19930;-79
2022/12/15 07:19:59;;;;;;;;;;;-3.10;99.90;;;;;;4960128;28;19933;-78
2022/12/15 07:22:28;;;;;;;;;;;-3.10;99.90;;;;;;4959391;28;19926;-78
2022/12/15 07:24:55;;;;;;;;;;;-3.10;99.90;;;;;;4956423;28;20454;-77
2022/12/15 07:27:21;;;;;;;;;;;-3.10;99.90;;;;;;4954183;28;19926;-79
2022/12/15 07:29:49;;;;;;;;;;;-3.10;99.90;;;;;;4958533;28;19980;-80
2022/12/15 07:32:16;;;;;;;;;;;-3.10;99.90;;;;;;4958306;28;19930;-80
2022/12/15 07:34:49;;;;;;;;;;;-3.20;99.90;;;;;;4962791;28;20312;-78
2022/12/15 07:37:18;;;;;;;;;;;-3.20;99.90;;;;;;4956566;28;19993;-78
2022/12/15 07:39:45;;;;;;;;;;;-3.30;99.90;;;;;;4958005;28;19926;-78
2022/12/15 07:42:12;;;;;;;;;;;-3.30;99.90;;;;;;4959425;28;20404;-78
2022/12/15 07:44:41;;;;;;;;;;;-3.40;99.90;;;;;;4961611;28;19937;-78
2022/12/15 07:47:08;;;;;;;;;;;-3.40;99.90;;;;;;4954979;28;20183;-81
2022/12/15 07:49:35;;;;;;;;;;;-3.50;99.90;;;;;;4956674;28;19932;-79
2022/12/15 07:52:04;;;;;;;;;;;-3.50;99.90;;;;;;4966949;28;19926;-84
2022/12/15 07:54:31;;;;;;;;;;;-3.50;99.90;;;;;;4988764;28;20001;-77
2022/12/15 07:56:58;;;;;;;;;;;-3.50;99.90;;;;;;4967377;28;19926;-78
2022/12/15 07:59:25;;;;;;;;;;;-3.50;99.90;;;;;;4955811;28;19971;-79
2022/12/15 08:01:54;;;;;;;;;;;-3.50;99.90;;;;;;4955585;28;19937;-78
2022/12/15 08:04:21;;;;;;;;;;;-3.50;99.90;;;;;;4967952;28;19930;-81
2022/12/15 08:06:50;;;;;;;;;;;-3.40;99.90;;;;;;4971641;28;20315;-76
2022/12/15 08:09:18;;;;;;;;;;;-3.40;99.90;;;;;;4955093;28;19941;-78
2022/12/15 08:11:45;;;;;;;;;;;-3.40;99.90;;;;;;4965819;28;19990;-77
2022/12/15 08:14:14;;;;;;;;;;;-3.30;99.90;;;;;;4974102;28;20032;-79
2022/12/15 08:16:40;;;;;;;;;;;-3.30;99.90;;;;;;4960939;28;19929;-77
2022/12/15 08:19:10;;;;;;;;;;;-3.20;99.90;;;;;;4967912;28;19926;-78
2022/12/15 08:21:39;;;;;;;;;;;-3.20;99.90;;;;;;4970942;28;19954;-76
2022/12/15 08:24:06;;;;;;;;;;;-3.10;99.90;;;;;;4955238;28;19945;-77
2022/12/15 08:26:36;;;;;;;;;;;-2.90;99.90;;;;;;4956159;28;19977;-77
2022/12/15 08:29:04;;;;;;;;;;;-2.80;99.90;;;;;;4991965;28;19984;-77
2022/12/15 08:31:31;;;;;;;;;;;-2.80;99.90;;;;;;4971850;28;20459;-78
2022/12/15 08:34:00;;;;;;;;;;;-2.70;99.90;;;;;;4969481;28;19937;-77
2022/12/15 08:36:30;;;;;;;;;;;-2.20;99.90;;;;;;4955405;28;19980;-77
2022/12/15 08:38:58;;;;;;;;;;;-2.60;99.90;;;;;;4957028;28;20459;-77
2022/12/15 08:41:26;;;;;;;;;;;-2.10;99.90;;;;;;4959427;28;20017;-78
2022/12/15 08:43:55;;;;;;;;;;;-2.50;99.90;;;;;;4951371;28;19977;-80
2022/12/15 08:46:23;;;;;;;;;;;-2.40;99.90;;;;;;4967292;28;19981;-79
2022/12/15 08:48:51;;;;;;;;;;;-2.40;99.90;;;;;;4953078;28;19934;-77
2022/12/15 08:51:19;;;;;;;;;;;-2.40;99.90;;;;;;4953849;28;19992;-79
2022/12/15 08:53:46;;;;;;;;;;;-2.40;99.90;;;;;;4969003;28;19926;-78
2022/12/15 08:56:16;;;;;;;;;;;-2.30;99.90;;;;;;4969537;28;20009;-79
2022/12/15 08:58:42;;;;;;;;;;;-2.20;99.90;;;;;;4965384;28;19954;-78
2022/12/15 09:01:13;;;;;;;;;;;-2.20;99.90;;;;;;4949730;28;19934;-78
2022/12/15 09:03:40;;;;;;;;;;;-2.20;99.90;;;;;;4959849;28;19941;-78
2022/12/15 09:06:08;;;;;;;;;;;-2.20;99.90;;;;;;4976082;28;19926;-80
2022/12/15 09:08:35;;;;;;;;;;;-2.10;99.90;;;;;;4960652;28;20458;-78
2022/12/15 09:11:04;;;;;;;;;;;-2.00;99.90;;;;;;4956120;28;19933;-78
2022/12/15 09:13:31;;;;;;;;;;;-1.60;99.90;;;;;;4956038;28;19926;-76
2022/12/15 09:15:59;;;;;;;;;;;-2.00;99.90;;;;;;4964462;28;19941;-77
2022/12/15 09:18:27;;;;;;;;;;;-1.90;99.90;;;;;;4952711;28;19934;-77
2022/12/15 09:20:54;;;;;;;;;;;-1.90;99.90;;;;;;4954949;28;19934;-78
2022/12/15 09:23:21;;;;;;;;;;;-1.90;99.90;;;;;;4960243;28;20288;-78
2022/12/15 09:25:48;;;;;;;;;;;-1.80;99.90;;;;;;4949319;28;19969;-79
2022/12/15 09:28:15;;;;;;;;;;;-1.80;99.90;;;;;;4943622;28;20058;-78
2022/12/15 09:30:42;;;;;;;;;;;-1.70;99.90;;;;;;4945164;28;20380;-78
2022/12/15 09:33:09;;;;;;;;;;;-1.70;99.90;;;;;;4947141;28;19958;-77
2022/12/15 09:35:37;;;;;;;;;;;-1.60;99.90;;;;;;4958142;28;19930;-80
2022/12/15 09:38:04;;;;;;;;;;;-1.50;99.90;;;;;;4954296;28;19930;-80
2022/12/15 09:40:32;;;;;;;;;;;-1.40;99.90;;;;;;4950947;28;20434;-77
2022/12/15 09:42:59;;;;;;;;;;;-1.40;99.90;;;;;;4950902;28;20012;-78
2022/12/15 09:45:28;;;;;;;;;;;-1.30;99.90;;;;;;4966644;28;19981;-77
2022/12/15 09:48:01;;;;;;;;;;;-1.30;99.90;;;;;;4951741;28;19934;-79
2022/12/15 09:50:31;;;;;;;;;;;-1.20;99.90;;;;;;4968721;28;19931;-78
2022/12/15 09:53:00;;;;;;;;;;;-1.20;99.90;;;;;;4957041;28;19930;-77
2022/12/15 09:55:28;;;;;;;;;;;-1.20;99.90;;;;;;4954040;28;19973;-78
2022/12/15 09:57:56;;;;;;;;;;;-1.20;99.90;;;;;;4962683;28;19926;-77
2022/12/15 10:00:24;;;;;;;;;;;-1.10;99.90;;;;;;4966106;28;19927;-77
2022/12/15 10:03:08;;;;;;;;;;;-1.00;99.90;;;;;;4962861;28;20537;-78
2022/12/15 10:05:38;;;;;;;;;;;-0.90;99.90;;;;;;4962587;28;20018;-79
2022/12/15 10:08:06;;;;;;;;;;;-0.80;99.90;;;;;;4961712;28;19930;-78
2022/12/15 10:10:34;;;;;;;;;;;-0.70;99.90;;;;;;4960327;28;19954;-78
2022/12/15 10:13:07;;;;;;;;;;;-0.60;99.90;;;;;;4961374;28;19938;-77
2022/12/15 10:15:39;;;;;;;;;;;-0.50;99.90;;;;;;4958286;28;20352;-78
2022/12/15 10:18:11;;;;;;;;;;;-0.40;99.90;;;;;;4962828;28;19997;-76
2022/12/15 10:20:38;;;;;;;;;;;-0.40;99.90;;;;;;4952841;28;19935;-79
2022/12/15 10:23:10;;;;;;;;;;;-0.30;99.90;;;;;;4956131;28;19930;-77
2022/12/15 10:25:38;;;;;;;;;;;-0.20;99.90;;;;;;4956624;28;20012;-80
2022/12/15 10:28:10;;;;;;;;;;;-0.20;99.90;;;;;;4952211;28;19945;-79
2022/12/15 10:30:39;;;;;;;;;;;-0.10;99.90;;;;;;4960816;28;20517;-79
2022/12/15 10:33:11;;;;;;;;;;;-0.20;99.90;;;;;;4944703;28;19941;-79
2022/12/15 10:35:40;;;;;;;;;;;-0.20;99.90;;;;;;4962150;28;19938;-78
2022/12/15 10:38:17;;;;;;;;;;;-0.10;99.90;;;;;;4949705;28;19970;-80
2022/12/15 10:40:46;;;;;;;;;;;-0.10;99.90;;;;;;4945625;28;19934;-79
2022/12/15 10:43:13;;;;;;;;;;;0.00;99.90;;;;;;4946105;29;19950;-78
2022/12/15 10:45:40;;;;;;;;;;;0.00;99.90;;;;;;4954047;28;19930;-79
2022/12/15 10:48:17;;;;;;;;;;;0.10;99.90;;;;;;4954606;28;19945;-79
2022/12/15 10:50:44;;;;;;;;;;;0.20;99.90;;;;;;4950193;28;19926;-79
2022/12/15 10:53:32;;;;;;;;;;;0.20;99.90;;;;;;4943154;29;19934;-79
2022/12/15 10:56:00;;;;;;;;;;;0.30;99.90;;;;;;4945279;28;19965;-79
2022/12/15 10:58:27;;;;;;;;;;;0.30;99.90;;;;;;4947724;28;19935;-80
2022/12/15 11:01:06;;;;;;;;;;;0.40;99.90;;;;;;4963967;28;19938;-80
2022/12/15 11:03:36;;;;;;;;;;;0.40;99.90;;;;;;4953683;28;19982;-79
2022/12/15 11:06:08;;;;;;;;;;;0.30;99.90;;;;;;4953685;28;19981;-79
2022/12/15 11:08:36;;;;;;;;;;;0.40;99.90;;;;;;4945356;28;20292;-79
2022/12/15 11:14:04;;;;;;;;;;;0.40;99.90;;;;;;4961228;28;20416;-80
2022/12/15 11:16:31;;;;;;;;;;;0.40;99.90;;;;;;4959986;28;20335;-79
2022/12/15 11:19:02;;;;;;;;;;;0.40;99.90;;;;;;4951234;28;20047;-80
2022/12/15 11:21:32;;;;;;;;;;;0.40;99.90;;;;;;4966182;28;21295;-78
2022/12/15 11:24:04;;;;;;;;;;;0.50;99.90;;;;;;4947754;28;20035;-78
2022/12/15 11:26:39;;;;;;;;;;;0.40;99.90;;;;;;4953153;28;19938;-78
2022/12/15 11:29:10;;;;;;;;;;;0.40;99.90;;;;;;4969266;28;19930;-78
2022/12/15 11:31:37;;;;;;;;;;;0.50;99.90;;;;;;4969459;28;19934;-80
2022/12/15 11:34:11;;;;;;;;;;;0.50;99.90;;;;;;4960336;28;20004;-78
2022/12/15 11:36:49;;;;;;;;;;;0.70;99.90;;;;;;4954243;28;19937;-79
2022/12/15 11:39:24;;;;;;;;;;;0.70;99.90;;;;;;4955357;28;19930;-78
2022/12/15 11:41:53;;;;;;;;;;;0.70;99.90;;;;;;4960917;28;19926;-78
2022/12/15 11:44:27;;;;;;;;;;;0.70;99.90;;;;;;4960171;28;19926;-78
2022/12/15 11:46:57;;;;;;;;;;;0.70;99.90;;;;;;4952652;28;19934;-78
2022/12/15 11:49:33;;;;;;;;;;;0.70;99.90;;;;;;4966784;28;19999;-79
2022/12/15 11:52:07;;;;;;;;;;;0.60;99.90;;;;;;4968677;28;20021;-79
2022/12/15 11:54:39;;;;;;;;;;;0.60;99.90;;;;;;4960300;28;19965;-78
2022/12/15 11:57:18;;;;;;;;;;;0.50;99.90;;;;;;4959665;28;19934;-78
2022/12/15 11:59:59;;;;;;;;;;;0.50;99.90;;;;;;4957324;28;19968;-78
2022/12/15 12:02:41;;;;;;;;;;;0.40;99.90;;;;;;4953063;28;19930;-79
2022/12/15 12:05:17;;;;;;;;;;;0.40;99.90;;;;;;4953050;28;19934;-78
2022/12/15 12:07:45;;;;;;;;;;;0.40;99.90;;;;;;4956964;28;19930;-78
2022/12/15 12:10:23;;;;;;;;;;;0.40;99.90;;;;;;4957419;28;19934;-80
2022/12/15 12:12:53;;;;;;;;;;;0.50;99.90;;;;;;4957364;28;19938;-78
2022/12/15 12:15:26;;;;;;;;;;;0.50;99.90;;;;;;4943715;28;19936;-80
2022/12/15 12:17:55;;;;;;;;;;;0.50;99.90;;;;;;4964331;28;19951;-79
2022/12/15 12:20:24;;;;;;;;;;;0.50;99.90;;;;;;4946536;28;19941;-79
2022/12/15 12:22:57;;;;;;;;;;;0.50;99.90;;;;;;4960782;28;19930;-79
2022/12/15 12:25:25;;;;;;;;;;;0.50;99.90;;;;;;4965272;28;19934;-80
2022/12/15 12:27:54;;;;;;;;;;;0.60;99.90;;;;;;4963669;28;19933;-80
2022/12/15 12:30:23;;;;;;;;;;;0.60;99.90;;;;;;4970842;28;20068;-80
2022/12/15 12:32:54;;;;;;;;;;;0.60;99.90;;;;;;4964185;28;19930;-79
2022/12/15 12:35:23;;;;;;;;;;;0.70;99.90;;;;;;4957562;28;19929;-79
2022/12/15 12:37:51;;;;;;;;;;;0.50;99.90;;;;;;4947104;28;19934;-79
2022/12/15 12:40:19;;;;;;;;;;;0.50;99.90;;;;;;4976202;28;20005;-79
2022/12/15 12:42:51;;;;;;;;;;;0.50;99.90;;;;;;4959957;28;20017;-80
2022/12/15 12:45:21;;;;;;;;;;;0.50;99.90;;;;;;4950013;28;19976;-79
2022/12/15 12:47:50;;;;;;;;;;;0.50;99.90;;;;;;4947360;28;20061;-79
2022/12/15 12:50:18;;;;;;;;;;;0.50;99.90;;;;;;4941196;28;19931;-79
2022/12/15 12:52:49;;;;;;;;;;;0.50;99.90;;;;;;4955526;28;20548;-79
2022/12/15 12:55:24;;;;;;;;;;;0.60;99.90;;;;;;4962053;28;19934;-79
2022/12/15 12:57:54;;;;;;;;;;;0.70;99.90;;;;;;4963864;28;19934;-79
2022/12/15 13:00:22;;;;;;;;;;;0.80;99.90;;;;;;4947998;28;20029;-79
2022/12/15 13:03:04;;;;;;;;;;;0.80;99.90;;;;;;4962272;28;20365;-79
2022/12/15 13:05:32;;;;;;;;;;;0.70;99.90;;;;;;4956759;28;19934;-79
2022/12/15 13:08:24;;;;;;;;;;;0.70;99.90;;;;;;4963783;28;19936;-79
2022/12/15 13:10:52;;;;;;;;;;;0.70;99.90;;;;;;4946299;28;19941;-79
2022/12/15 13:13:36;;;;;;;;;;;0.50;99.90;;;;;;4955364;28;19958;-79
2022/12/15 13:16:08;;;;;;;;;;;0.40;99.90;;;;;;4946944;28;19955;-79
2022/12/15 13:18:51;;;;;;;;;;;0.50;99.90;;;;;;4943195;28;19934;-81
2022/12/15 13:21:32;;;;;;;;;;;0.50;99.90;;;;;;4960816;28;19930;-81
2022/12/15 13:24:04;;;;;;;;;;;0.50;99.90;;;;;;4942319;28;19926;-81
2022/12/15 13:26:31;;;;;;;;;;;1.50;99.90;;;;;;4956031;28;19973;-83
2022/12/15 13:28:58;;;;;;;;;;;0.50;99.90;;;;;;4956195;28;19934;-81
2022/12/15 13:31:32;;;;;;;;;;;0.60;99.90;;;;;;4929040;28;19930;-81
2022/12/15 13:34:03;;;;;;;;;;;0.70;99.90;;;;;;4951262;28;19962;-82
2022/12/15 13:36:43;;;;;;;;;;;0.80;99.90;;;;;;4941283;28;19936;-82
2022/12/15 13:39:25;;;;;;;;;;;0.80;99.90;;;;;;4931230;28;20392;-81
2022/12/15 13:42:10;;;;;;;;;;;0.80;99.90;;;;;;4953181;28;19941;-82
2022/12/15 13:44:38;;;;;;;;;;;0.90;99.90;;;;;;4936855;28;20010;-82
2022/12/15 13:47:10;;;;;;;;;;;1.00;99.90;;;;;;4948334;28;19937;-81
2022/12/15 13:49:41;;;;;;;;;;;1.00;99.90;;;;;;4933205;28;19931;-82
2022/12/15 13:52:12;;;;;;;;;;;1.10;99.90;;;;;;4933340;28;19930;-81
2022/12/15 13:54:40;;;;;;;;;;;1.10;99.90;;;;;;4940216;28;19937;-81
2022/12/15 13:57:12;;;;;;;;;;;1.10;99.90;;;;;;4938971;28;19927;-82
2022/12/15 13:59:42;;;;;;;;;;;1.10;99.90;;;;;;4948857;28;19926;-81
2022/12/15 14:02:27;;;;;;;;;;;1.00;99.90;;;;;;4957607;28;19961;-80
2022/12/15 14:05:14;;;;;;;;;;;1.00;99.90;;;;;;4957604;28;19989;-81
2022/12/15 14:07:45;;;;;;;;;;;1.00;99.90;;;;;;4956498;28;19949;-83
2022/12/15 14:10:17;;;;;;;;;;;0.90;99.90;;;;;;4954495;28;19934;-82
2022/12/15 14:12:45;;;;;;;;;;;0.80;99.90;;;;;;4957040;28;19949;-79
2022/12/15 14:15:13;;;;;;;;;;;0.70;99.90;;;;;;4964502;28;19934;-80
2022/12/15 14:17:41;;;;;;;;;;;0.50;99.90;;;;;;4963542;28;19938;-80
2022/12/15 14:20:17;;;;;;;;;;;0.40;99.90;;;;;;4959209;28;20247;-78
2022/12/15 14:22:45;;;;;;;;;;;0.30;99.90;;;;;;4960720;28;19930;-79
2022/12/15 14:25:14;;;;;;;;;;;0.30;99.90;;;;;;4964594;28;19957;-78
2022/12/15 14:27:41;;;;;;;;;;;0.20;99.90;;;;;;4964912;28;19930;-79
2022/12/15 14:30:13;;;;;;;;;;;0.10;99.90;;;;;;4965980;28;19945;-78
2022/12/15 14:32:43;;;;;;;;;;;0.10;99.90;;;;;;4962889;28;19993;-78
2022/12/15 14:35:14;;;;;;;;;;;0.00;99.90;;;;;;4964476;28;20482;-78
2022/12/15 14:37:42;;;;;;;;;;;0.00;99.90;;;;;;4964479;28;19930;-78
2022/12/15 14:40:13;;;;;;;;;;;-0.10;99.90;;;;;;4959073;28;20281;-79
2022/12/15 14:42:42;;;;;;;;;;;-0.10;99.90;;;;;;4954390;28;19926;-79
2022/12/15 14:45:18;;;;;;;;;;;-0.20;99.90;;;;;;4957051;28;19930;-78
2022/12/15 14:47:49;;;;;;;;;;;-0.30;99.90;;;;;;4955065;28;19937;-81
2022/12/15 14:50:23;;;;;;;;;;;-0.40;99.90;;;;;;4956755;28;19927;-81
2022/12/15 14:52:53;;;;;;;;;;;-0.40;99.90;;;;;;4967234;28;19926;-78
2022/12/15 14:55:29;;;;;;;;;;;-0.50;99.90;;;;;;4973915;28;19930;-78
2022/12/15 14:57:56;;;;;;;;;;;-2.00;99.90;;;;;;4948763;28;20171;-79
2022/12/15 15:00:25;;;;;;;;;;;-0.50;99.90;;;;;;4979257;28;19936;-78
2022/12/15 15:03:07;;;;;;;;;;;-0.70;99.90;;;;;;4987946;28;19933;-79
2022/12/15 15:05:39;;;;;;;;;;;-0.80;99.90;;;;;;4960488;28;20315;-78
2022/12/15 15:08:06;;;;;;;;;;;-0.90;99.90;;;;;;4957941;28;19926;-78
2022/12/15 15:10:34;;;;;;;;;;;-0.90;99.90;;;;;;4980364;28;20427;-77
2022/12/15 15:13:04;;;;;;;;;;;-1.00;99.90;;;;;;4974698;28;19926;-77
2022/12/15 15:15:31;;;;;;;;;;;-1.10;99.90;;;;;;4962753;28;19977;-76
2022/12/15 15:17:59;;;;;;;;;;;-1.20;99.90;;;;;;4964002;28;19957;-77
2022/12/15 15:20:27;;;;;;;;;;;-1.20;99.90;;;;;;4969250;28;19937;-77
2022/12/15 15:23:12;;;;;;;;;;;-1.40;99.90;;;;;;4976719;28;19952;-78
2022/12/15 15:25:41;;;;;;;;;;;-1.50;99.90;;;;;;4964705;28;19926;-78
2022/12/15 15:28:21;;;;;;;;;;;-1.60;99.90;;;;;;4943202;29;19973;-78
2022/12/15 15:30:50;;;;;;;;;;;-1.70;99.90;;;;;;4944674;28;20435;-76
2022/12/15 15:33:18;;;;;;;;;;;-1.80;99.90;;;;;;4962096;28;19981;-79
2022/12/15 15:35:49;;;;;;;;;;;-1.80;99.90;;;;;;4975271;28;20071;-79
2022/12/15 15:38:20;;;;;;;;;;;-1.90;99.90;;;;;;4971171;28;19993;-80
2022/12/15 15:40:53;;;;;;;;;;;-2.00;99.90;;;;;;4967037;28;19962;-79
2022/12/15 15:43:23;;;;;;;;;;;-2.10;99.90;;;;;;4981133;28;19926;-80
2022/12/15 15:45:55;;;;;;;;;;;-2.10;99.90;;;;;;4964406;28;19937;-79
2022/12/15 15:48:28;;;;;;;;;;;-2.20;99.90;;;;;;4960323;28;19930;-79
2022/12/15 15:50:56;;;;;;;;;;;-2.30;99.90;;;;;;4968742;28;19932;-79
2022/12/15 15:53:25;;;;;;;;;;;-2.30;99.90;;;;;;4979990;28;19930;-77
2022/12/15 15:55:53;;;;;;;;;;;-2.40;99.90;;;;;;4974136;28;19930;-78
2022/12/15 15:58:20;;;;;;;;;;;-2.40;99.90;;;;;;4960858;28;19930;-79
2022/12/15 16:00:48;;;;;;;;;;;-2.40;99.90;;;;;;4959654;28;20094;-80
2022/12/15 16:03:15;;;;;;;;;;;-2.40;99.90;;;;;;4970169;28;19930;-79
2022/12/15 16:08:28;;;;;;;;;;;-3.70;99.90;;;;;;4970892;28;19945;-81
2022/12/15 16:10:55;;;;;;;;;;;-2.60;99.90;;;;;;4956815;28;19930;-77
2022/12/15 16:13:23;;;;;;;;;;;-2.60;99.90;;;;;;4983811;28;19938;-77
2022/12/15 16:15:50;;;;;;;;;;;-2.60;99.90;;;;;;4971091;28;19930;-79
2022/12/15 16:18:19;;;;;;;;;;;-2.60;99.90;;;;;;4957642;28;19937;-79
2022/12/15 16:20:50;;;;;;;;;;;-2.60;99.90;;;;;;4962714;28;19965;-79
2022/12/15 16:23:20;;;;;;;;;;;-2.70;99.90;;;;;;4981194;28;19941;-78
2022/12/15 16:25:51;;;;;;;;;;;-2.80;99.90;;;;;;4956271;28;19973;-79
2022/12/15 16:28:20;;;;;;;;;;;-2.80;99.90;;;;;;4956670;28;19930;-79
2022/12/15 16:30:48;;;;;;;;;;;-2.80;99.90;;;;;;4956675;28;19965;-80
2022/12/15 16:33:16;;;;;;;;;;;-2.80;99.90;;;;;;4974535;28;19926;-78
2022/12/15 16:35:44;;;;;;;;;;;-2.90;99.90;;;;;;4956536;28;19930;-78
2022/12/15 16:38:14;;;;;;;;;;;-2.90;99.90;;;;;;4960140;28;19930;-80
2022/12/15 16:40:41;;;;;;;;;;;-3.00;99.90;;;;;;4957344;28;20013;-78
2022/12/15 16:43:14;;;;;;;;;;;-3.00;99.90;;;;;;4953915;28;19983;-79
2022/12/15 16:45:43;;;;;;;;;;;-3.10;99.90;;;;;;4970178;28;19935;-79
2022/12/15 16:48:11;;;;;;;;;;;-3.10;99.90;;;;;;4959742;28;19926;-79
2022/12/15 16:50:42;;;;;;;;;;;-3.10;99.90;;;;;;4962798;28;20022;-78
2022/12/15 16:53:14;;;;;;;;;;;-3.10;99.90;;;;;;4975579;28;19945;-80
2022/12/15 16:55:42;;;;;;;;;;;-3.10;99.90;;;;;;4957477;28;19934;-78
2022/12/15 16:58:13;;;;;;;;;;;-3.10;99.90;;;;;;4957283;28;19930;-80